No 31 Takemaru — JG5731 — position and weather

sailwx.info

Track history (hours):
 
Tides and Currents Weather Stations Pressure Air Temp Water Temp Dewpoint Dewpoint Depression Visibility Wind Speed Wind Dir Waves Ship Positions

No 31 Takemaru

Last reported at 2017-Nov-20 00:30 UTC. Time now 2017-Nov-22 03:18 UTC.
Position N 34°39' E 135°28'.

Length 31 m; draft 2.5 m.

Type: Tug. MMSI: 431000439.

Date/timePositionNaut miles runAvg speedWind from/ knotsBaromVisibWave heightAir tempDewpointWater temp
2017-Nov-20 00:30N 34°39' E 135°28'0 0.0
2017-Nov-19 23:59N 34°39' E 135°28'0 0.0
2017-Nov-19 22:47N 34°39' E 135°28'0 0.0
2017-Nov-19 22:23N 34°39' E 135°28'0 0.0
2017-Nov-19 21:53N 34°39' E 135°28'0 0.0
2017-Nov-19 21:13N 34°39' E 135°28'0 0.0
2017-Nov-19 20:40N 34°39' E 135°28'0 0.0
2017-Nov-19 14:58N 34°39' E 135°28'0 0.0
2017-Nov-19 11:23N 34°39' E 135°28'4 9.6
2017-Nov-19 11:00N 34°38' E 135°24'611.2
2017-Nov-19 10:30N 34°32' E 135°24'1 1.1
2017-Nov-19 09:58N 34°32' E 135°24'1 1.2
2017-Nov-19 08:58N 34°31' E 135°23'2 0.2
2017-Nov-19 02:37N 34°32' E 135°24'1 9.8
2017-Nov-19 02:30N 34°33' E 135°24'0 0.3
2017-Nov-19 01:55N 34°33' E 135°25'0 1.1
2017-Nov-19 01:29N 34°33' E 135°24'1 1.7
2017-Nov-19 01:00N 34°32' E 135°24'1 2.1
2017-Nov-19 00:27N 34°31' E 135°25'0 0.9
2017-Nov-19 00:00N 34°32' E 135°24'0 0.2
2017-Nov-18 23:30N 34°32' E 135°24'4 8.7
2017-Nov-18 23:00N 34°36' E 135°24'2 3.6
2017-Nov-18 22:30N 34°35' E 135°26'2 3.1
2017-Nov-18 22:00N 34°36' E 135°25'3 6.8
2017-Nov-18 21:30N 34°39' E 135°27'1 0.7
2017-Nov-18 20:20N 34°39' E 135°28'0 0.0
2017-Nov-18 20:00N 34°39' E 135°28'0 0.0
2017-Nov-18 19:10N 34°39' E 135°28'0 0.0
2017-Nov-18 15:10N 34°39' E 135°28'0 0.0
2017-Nov-18 14:53N 34°39' E 135°28'0 0.0
2017-Nov-18 14:24N 34°39' E 135°28'0 0.0
2017-Nov-18 11:44N 34°39' E 135°28'0 0.0
2017-Nov-18 05:30N 34°39' E 135°28'5 9.5
2017-Nov-18 05:00N 34°36' E 135°23'6 9.2
2017-Nov-18 04:23N 34°31' E 135°23'1 2.3
2017-Nov-18 03:59N 34°32' E 135°23'1 1.5
2017-Nov-18 03:30N 34°32' E 135°22'4 7.1
2017-Nov-18 02:58N 34°36' E 135°23'4 8.6
2017-Nov-18 02:30N 34°39' E 135°27'1 0.0
2017-Nov-16 23:46N 34°39' E 135°28'0 0.0
2017-Nov-16 08:00N 34°39' E 135°28'5 9.1
2017-Nov-16 07:30N 34°36' E 135°23'5 8.6
2017-Nov-16 06:58N 34°32' E 135°24'1 0.3
2017-Nov-16 03:38N 34°31' E 135°23'0 1.3
2017-Nov-16 03:30N 34°31' E 135°23'1 0.2
2017-Nov-15 23:31N 34°31' E 135°24'0 1.0
2017-Nov-15 23:06N 34°32' E 135°24'0 2.0
2017-Nov-15 23:00N 34°32' E 135°24'0 0.9
2017-Nov-15 22:27N 34°32' E 135°24'1 2.5
2017-Nov-15 21:54N 34°34' E 135°23'410.8
2017-Nov-15 21:30N 34°38' E 135°24'4 3.0
2017-Nov-15 20:14N 34°39' E 135°28'0 0.0
2017-Nov-15 07:35N 34°39' E 135°28'1 8.3
2017-Nov-15 07:30N 34°39' E 135°27'4 8.1
2017-Nov-15 07:00N 34°36' E 135°24'4 7.4
2017-Nov-15 06:29N 34°32' E 135°24'1 0.6
2017-Nov-15 05:06N 34°31' E 135°23'0 0.3
2017-Nov-15 04:43N 34°31' E 135°23'2 6.4
2017-Nov-15 04:24N 34°33' E 135°23'410.9
2017-Nov-15 04:00N 34°38' E 135°23'4 0.9
2017-Nov-14 23:36N 34°39' E 135°28'0 0.0
2017-Nov-14 23:24N 34°39' E 135°28'0 0.0
2017-Nov-14 17:50N 34°39' E 135°28'0 0.0
2017-Nov-14 17:22N 34°39' E 135°28'0 0.0
2017-Nov-14 17:00N 34°39' E 135°28'0 0.0
2017-Nov-14 16:29N 34°39' E 135°28'0 0.0
2017-Nov-14 15:56N 34°39' E 135°28'0 0.0
2017-Nov-14 12:31N 34°39' E 135°28'0 0.0
2017-Nov-14 12:24N 34°39' E 135°28'0 0.0
2017-Nov-14 04:37N 34°39' E 135°28'1 6.2
2017-Nov-14 04:30N 34°39' E 135°27'4 9.0
2017-Nov-14 04:00N 34°36' E 135°23'3 4.4
2017-Nov-14 03:13N 34°33' E 135°26'1 3.9
2017-Nov-14 03:00N 34°33' E 135°25'2 3.7
2017-Nov-14 02:21N 34°34' E 135°22'1 2.1
2017-Nov-14 02:00N 34°35' E 135°22'4 7.2
2017-Nov-14 01:30N 34°38' E 135°24'7 0.3
2017-Nov-13 00:09N 34°31' E 135°24'110.2
2017-Nov-13 00:00N 34°32' E 135°23'711.3
2017-Nov-12 23:25N 34°26' E 135°19'0 0.2
2017-Nov-12 22:50N 34°26' E 135°19'1 2.2
2017-Nov-12 22:23N 34°27' E 135°19'6 5.7
2017-Nov-12 21:18N 34°33' E 135°21'311.0
2017-Nov-12 21:00N 34°36' E 135°23'5 9.6
2017-Nov-12 20:30N 34°39' E 135°27'1 1.1
2017-Nov-12 20:00N 34°39' E 135°28'0 0.0
2017-Nov-12 19:29N 34°39' E 135°28'0 0.0
2017-Nov-12 18:57N 34°39' E 135°28'0 0.0
2017-Nov-12 18:24N 34°39' E 135°28'0 0.0
2017-Nov-12 18:00N 34°39' E 135°28'0 0.0
2017-Nov-12 17:17N 34°39' E 135°28'0 0.0
2017-Nov-12 16:53N 34°39' E 135°28'0 0.0
2017-Nov-12 16:24N 34°39' E 135°28'0 0.0
2017-Nov-12 15:02N 34°39' E 135°28'0 0.0
2017-Nov-12 15:00N 34°39' E 135°28'0 0.0
2017-Nov-12 14:25N 34°39' E 135°28'0 0.0
2017-Nov-12 13:12N 34°39' E 135°28'0 0.0
2017-Nov-12 06:29N 34°39' E 135°28'5 9.6
2017-Nov-12 05:59N 34°36' E 135°23'4 6.1
2017-Nov-12 05:24N 34°33' E 135°26'2 4.2
2017-Nov-12 04:59N 34°33' E 135°24'1 2.4
2017-Nov-12 04:29N 34°34' E 135°23'1 1.7
2017-Nov-12 04:00N 34°34' E 135°24'0 0.3
2017-Nov-12 03:29N 34°34' E 135°24'1 2.1
2017-Nov-12 02:58N 34°34' E 135°25'2 0.5
2017-Nov-11 23:25N 34°32' E 135°24'2 3.9
2017-Nov-11 22:59N 34°34' E 135°25'2 4.1
2017-Nov-11 22:30N 34°33' E 135°23'1 1.0
2017-Nov-11 22:00N 34°34' E 135°23'3 6.6
2017-Nov-11 21:29N 34°37' E 135°23'4 8.8
2017-Nov-11 21:00N 34°39' E 135°28'0 0.0
2017-Nov-11 07:05N 34°39' E 135°28'0 0.0
2017-Nov-11 06:47N 34°39' E 135°28'3 9.4
2017-Nov-11 06:30N 34°39' E 135°25'5 9.7
2017-Nov-11 05:58N 34°33' E 135°23'3 6.1
2017-Nov-11 05:30N 34°31' E 135°23'3 5.4
2017-Nov-11 05:00N 34°33' E 135°25'0 0.3
2017-Nov-11 04:09N 34°33' E 135°25'2 0.5
2017-Nov-11 00:24N 34°31' E 135°24'0 0.6
2017-Nov-11 00:01N 34°31' E 135°24'6 8.5
2017-Nov-10 23:18N 34°26' E 135°19'1 1.6
2017-Nov-10 22:58N 34°26' E 135°19'1 2.3
2017-Nov-10 22:27N 34°27' E 135°19'0 0.2
2017-Nov-10 21:51N 34°27' E 135°19'4 9.7
2017-Nov-10 21:29N 34°30' E 135°21'510.7
2017-Nov-10 21:00N 34°35' E 135°23'5 9.1
2017-Nov-10 20:30N 34°39' E 135°26'1 0.5
2017-Nov-10 17:47N 34°39' E 135°28'0 0.0
2017-Nov-10 10:30N 34°39' E 135°28'5 9.3
2017-Nov-10 10:00N 34°36' E 135°23'5 9.7
2017-Nov-10 09:26N 34°31' E 135°23'0 0.2
2017-Nov-10 08:59N 34°31' E 135°23'1 0.5
2017-Nov-10 06:47N 34°32' E 135°24'2 4.9
2017-Nov-10 06:26N 34°33' E 135°26'1 1.8
2017-Nov-10 05:58N 34°33' E 135°25'2 3.8
2017-Nov-10 05:29N 34°34' E 135°23'2 0.5
2017-Nov-10 01:06N 34°31' E 135°23'1 4.6
2017-Nov-10 00:59N 34°32' E 135°23'  
Track history (hours):
 
Tides and Currents Weather Stations Pressure Air Temp Water Temp Dewpoint Dewpoint Depression Visibility Wind Speed Wind Dir Waves Ship Positions

No 31 Takemaru

Last reported at 2017-Nov-20 00:30 UTC. Time now 2017-Nov-22 03:18 UTC.
Position N 34°39' E 135°28'.

Length 31 m; draft 2.5 m.

Type: Tug. MMSI: 431000439.

Date/timePositionNaut miles runAvg speedWind from/ knotsBaromVisibWave heightAir tempDewpointWater temp
2017-Nov-20 00:30N 34°39' E 135°28'0 0.0
2017-Nov-19 23:59N 34°39' E 135°28'0 0.0
2017-Nov-19 22:47N 34°39' E 135°28'0 0.0
2017-Nov-19 22:23N 34°39' E 135°28'0 0.0
2017-Nov-19 21:53N 34°39' E 135°28'0 0.0
2017-Nov-19 21:13N 34°39' E 135°28'0 0.0
2017-Nov-19 20:40N 34°39' E 135°28'0 0.0
2017-Nov-19 14:58N 34°39' E 135°28'0 0.0
2017-Nov-19 11:23N 34°39' E 135°28'4 9.6
2017-Nov-19 11:00N 34°38' E 135°24'611.2
2017-Nov-19 10:30N 34°32' E 135°24'1 1.1
2017-Nov-19 09:58N 34°32' E 135°24'1 1.2
2017-Nov-19 08:58N 34°31' E 135°23'2 0.2
2017-Nov-19 02:37N 34°32' E 135°24'1 9.8
2017-Nov-19 02:30N 34°33' E 135°24'0 0.3
2017-Nov-19 01:55N 34°33' E 135°25'0 1.1
2017-Nov-19 01:29N 34°33' E 135°24'1 1.7
2017-Nov-19 01:00N 34°32' E 135°24'1 2.1
2017-Nov-19 00:27N 34°31' E 135°25'0 0.9
2017-Nov-19 00:00N 34°32' E 135°24'0 0.2
2017-Nov-18 23:30N 34°32' E 135°24'4 8.7
2017-Nov-18 23:00N 34°36' E 135°24'2 3.6
2017-Nov-18 22:30N 34°35' E 135°26'2 3.1
2017-Nov-18 22:00N 34°36' E 135°25'3 6.8
2017-Nov-18 21:30N 34°39' E 135°27'1 0.7
2017-Nov-18 20:20N 34°39' E 135°28'0 0.0
2017-Nov-18 20:00N 34°39' E 135°28'0 0.0
2017-Nov-18 19:10N 34°39' E 135°28'0 0.0
2017-Nov-18 15:10N 34°39' E 135°28'0 0.0
2017-Nov-18 14:53N 34°39' E 135°28'0 0.0
2017-Nov-18 14:24N 34°39' E 135°28'0 0.0
2017-Nov-18 11:44N 34°39' E 135°28'0 0.0
2017-Nov-18 05:30N 34°39' E 135°28'5 9.5
2017-Nov-18 05:00N 34°36' E 135°23'6 9.2
2017-Nov-18 04:23N 34°31' E 135°23'1 2.3
2017-Nov-18 03:59N 34°32' E 135°23'1 1.5
2017-Nov-18 03:30N 34°32' E 135°22'4 7.1
2017-Nov-18 02:58N 34°36' E 135°23'4 8.6
2017-Nov-18 02:30N 34°39' E 135°27'1 0.0
2017-Nov-16 23:46N 34°39' E 135°28'0 0.0
2017-Nov-16 08:00N 34°39' E 135°28'5 9.1
2017-Nov-16 07:30N 34°36' E 135°23'5 8.6
2017-Nov-16 06:58N 34°32' E 135°24'1 0.3
2017-Nov-16 03:38N 34°31' E 135°23'0 1.3
2017-Nov-16 03:30N 34°31' E 135°23'1 0.2
2017-Nov-15 23:31N 34°31' E 135°24'0 1.0
2017-Nov-15 23:06N 34°32' E 135°24'0 2.0
2017-Nov-15 23:00N 34°32' E 135°24'0 0.9
2017-Nov-15 22:27N 34°32' E 135°24'1 2.5
2017-Nov-15 21:54N 34°34' E 135°23'410.8
2017-Nov-15 21:30N 34°38' E 135°24'4 3.0
2017-Nov-15 20:14N 34°39' E 135°28'0 0.0
2017-Nov-15 07:35N 34°39' E 135°28'1 8.3
2017-Nov-15 07:30N 34°39' E 135°27'4 8.1
2017-Nov-15 07:00N 34°36' E 135°24'4 7.4
2017-Nov-15 06:29N 34°32' E 135°24'1 0.6
2017-Nov-15 05:06N 34°31' E 135°23'0 0.3
2017-Nov-15 04:43N 34°31' E 135°23'2 6.4
2017-Nov-15 04:24N 34°33' E 135°23'410.9
2017-Nov-15 04:00N 34°38' E 135°23'4 0.9
2017-Nov-14 23:36N 34°39' E 135°28'0 0.0
2017-Nov-14 23:24N 34°39' E 135°28'0 0.0
2017-Nov-14 17:50N 34°39' E 135°28'0 0.0
2017-Nov-14 17:22N 34°39' E 135°28'0 0.0
2017-Nov-14 17:00N 34°39' E 135°28'0 0.0
2017-Nov-14 16:29N 34°39' E 135°28'0 0.0
2017-Nov-14 15:56N 34°39' E 135°28'0 0.0
2017-Nov-14 12:31N 34°39' E 135°28'0 0.0
2017-Nov-14 12:24N 34°39' E 135°28'0 0.0
2017-Nov-14 04:37N 34°39' E 135°28'1 6.2
2017-Nov-14 04:30N 34°39' E 135°27'4 9.0
2017-Nov-14 04:00N 34°36' E 135°23'3 4.4
2017-Nov-14 03:13N 34°33' E 135°26'1 3.9
2017-Nov-14 03:00N 34°33' E 135°25'2 3.7
2017-Nov-14 02:21N 34°34' E 135°22'1 2.1
2017-Nov-14 02:00N 34°35' E 135°22'4 7.2
2017-Nov-14 01:30N 34°38' E 135°24'7 0.3
2017-Nov-13 00:09N 34°31' E 135°24'110.2
2017-Nov-13 00:00N 34°32' E 135°23'711.3
2017-Nov-12 23:25N 34°26' E 135°19'0 0.2
2017-Nov-12 22:50N 34°26' E 135°19'1 2.2
2017-Nov-12 22:23N 34°27' E 135°19'6 5.7
2017-Nov-12 21:18N 34°33' E 135°21'311.0
2017-Nov-12 21:00N 34°36' E 135°23'5 9.6
2017-Nov-12 20:30N 34°39' E 135°27'1 1.1
2017-Nov-12 20:00N 34°39' E 135°28'0 0.0
2017-Nov-12 19:29N 34°39' E 135°28'0 0.0
2017-Nov-12 18:57N 34°39' E 135°28'0 0.0
2017-Nov-12 18:24N 34°39' E 135°28'0 0.0
2017-Nov-12 18:00N 34°39' E 135°28'0 0.0
2017-Nov-12 17:17N 34°39' E 135°28'0 0.0
2017-Nov-12 16:53N 34°39' E 135°28'0 0.0
2017-Nov-12 16:24N 34°39' E 135°28'0 0.0
2017-Nov-12 15:02N 34°39' E 135°28'0 0.0
2017-Nov-12 15:00N 34°39' E 135°28'0 0.0
2017-Nov-12 14:25N 34°39' E 135°28'0 0.0
2017-Nov-12 13:12N 34°39' E 135°28'0 0.0
2017-Nov-12 06:29N 34°39' E 135°28'5 9.6
2017-Nov-12 05:59N 34°36' E 135°23'4 6.1
2017-Nov-12 05:24N 34°33' E 135°26'2 4.2
2017-Nov-12 04:59N 34°33' E 135°24'1 2.4
2017-Nov-12 04:29N 34°34' E 135°23'1 1.7
2017-Nov-12 04:00N 34°34' E 135°24'0 0.3
2017-Nov-12 03:29N 34°34' E 135°24'1 2.1
2017-Nov-12 02:58N 34°34' E 135°25'2 0.5
2017-Nov-11 23:25N 34°32' E 135°24'2 3.9
2017-Nov-11 22:59N 34°34' E 135°25'2 4.1
2017-Nov-11 22:30N 34°33' E 135°23'1 1.0
2017-Nov-11 22:00N 34°34' E 135°23'3 6.6
2017-Nov-11 21:29N 34°37' E 135°23'4 8.8
2017-Nov-11 21:00N 34°39' E 135°28'0 0.0
2017-Nov-11 07:05N 34°39' E 135°28'0 0.0
2017-Nov-11 06:47N 34°39' E 135°28'3 9.4
2017-Nov-11 06:30N 34°39' E 135°25'5 9.7
2017-Nov-11 05:58N 34°33' E 135°23'3 6.1
2017-Nov-11 05:30N 34°31' E 135°23'3 5.4
2017-Nov-11 05:00N 34°33' E 135°25'0 0.3
2017-Nov-11 04:09N 34°33' E 135°25'2 0.5
2017-Nov-11 00:24N 34°31' E 135°24'0 0.6
2017-Nov-11 00:01N 34°31' E 135°24'6 8.5
2017-Nov-10 23:18N 34°26' E 135°19'1 1.6
2017-Nov-10 22:58N 34°26' E 135°19'1 2.3
2017-Nov-10 22:27N 34°27' E 135°19'0 0.2
2017-Nov-10 21:51N 34°27' E 135°19'4 9.7
2017-Nov-10 21:29N 34°30' E 135°21'510.7
2017-Nov-10 21:00N 34°35' E 135°23'5 9.1
2017-Nov-10 20:30N 34°39' E 135°26'1 0.5
2017-Nov-10 17:47N 34°39' E 135°28'0 0.0
2017-Nov-10 10:30N 34°39' E 135°28'5 9.3
2017-Nov-10 10:00N 34°36' E 135°23'5 9.7
2017-Nov-10 09:26N 34°31' E 135°23'0 0.2
2017-Nov-10 08:59N 34°31' E 135°23'1 0.5
2017-Nov-10 06:47N 34°32' E 135°24'2 4.9
2017-Nov-10 06:26N 34°33' E 135°26'1 1.8
2017-Nov-10 05:58N 34°33' E 135°25'2 3.8
2017-Nov-10 05:29N 34°34' E 135°23'2 0.5
2017-Nov-10 01:06N 34°31' E 135°23'1 4.6
2017-Nov-10 00:59N 34°32' E 135°23'  

Dump ship's entire track history